sensor_id;sensor_type;location;lat;lon;timestamp;P1;durP1;ratioP1;P2;durP2;ratioP2
13461;SDS011;6803;45.264;5.468;2023-02-15T00:01:55;36.53;;;18.20;;
13461;SDS011;6803;45.264;5.468;2023-02-15T00:04:27;31.23;;;17.03;;
13461;SDS011;6803;45.264;5.468;2023-02-15T00:07:00;22.73;;;13.13;;
13461;SDS011;6803;45.264;5.468;2023-02-15T00:09:31;22.43;;;13.00;;
13461;SDS011;6803;45.264;5.468;2023-02-15T00:12:02;16.50;;;11.70;;
13461;SDS011;6803;45.264;5.468;2023-02-15T00:14:33;22.73;;;13.67;;
13461;SDS011;6803;45.264;5.468;2023-02-15T00:17:04;28.80;;;14.87;;
13461;SDS011;6803;45.264;5.468;2023-02-15T00:19:35;22.63;;;14.17;;
13461;SDS011;6803;45.264;5.468;2023-02-15T00:22:08;30.20;;;14.27;;
13461;SDS011;6803;45.264;5.468;2023-02-15T00:24:39;27.83;;;17.17;;
13461;SDS011;6803;45.264;5.468;2023-02-15T00:27:10;26.00;;;16.13;;
13461;SDS011;6803;45.264;5.468;2023-02-15T00:29:41;26.57;;;15.85;;
13461;SDS011;6803;45.264;5.468;2023-02-15T00:32:12;22.57;;;13.60;;
13461;SDS011;6803;45.264;5.468;2023-02-15T00:34:43;23.03;;;13.60;;
13461;SDS011;6803;45.264;5.468;2023-02-15T00:37:14;24.27;;;13.23;;
13461;SDS011;6803;45.264;5.468;2023-02-15T00:39:45;22.57;;;14.97;;
13461;SDS011;6803;45.264;5.468;2023-02-15T00:42:16;26.97;;;13.57;;
13461;SDS011;6803;45.264;5.468;2023-02-15T00:44:47;21.90;;;13.07;;
13461;SDS011;6803;45.264;5.468;2023-02-15T00:47:19;23.87;;;14.40;;
13461;SDS011;6803;45.264;5.468;2023-02-15T00:49:50;26.67;;;15.10;;
13461;SDS011;6803;45.264;5.468;2023-02-15T00:52:21;23.17;;;14.70;;
13461;SDS011;6803;45.264;5.468;2023-02-15T00:54:52;21.93;;;14.43;;
13461;SDS011;6803;45.264;5.468;2023-02-15T00:57:23;23.33;;;14.73;;
13461;SDS011;6803;45.264;5.468;2023-02-15T00:59:53;27.50;;;15.03;;
13461;SDS011;6803;45.264;5.468;2023-02-15T01:02:24;25.77;;;16.07;;
13461;SDS011;6803;45.264;5.468;2023-02-15T01:04:56;24.57;;;14.63;;
13461;SDS011;6803;45.264;5.468;2023-02-15T01:07:27;25.13;;;13.70;;
13461;SDS011;6803;45.264;5.468;2023-02-15T01:09:58;25.40;;;15.27;;
13461;SDS011;6803;45.264;5.468;2023-02-15T01:12:29;23.40;;;14.10;;
13461;SDS011;6803;45.264;5.468;2023-02-15T01:15:00;25.63;;;14.70;;
13461;SDS011;6803;45.264;5.468;2023-02-15T01:17:31;21.03;;;13.80;;
13461;SDS011;6803;45.264;5.468;2023-02-15T01:20:02;23.97;;;14.07;;
13461;SDS011;6803;45.264;5.468;2023-02-15T01:22:35;23.37;;;14.33;;
13461;SDS011;6803;45.264;5.468;2023-02-15T01:25:07;21.37;;;14.43;;
13461;SDS011;6803;45.264;5.468;2023-02-15T01:27:38;26.33;;;14.93;;
13461;SDS011;6803;45.264;5.468;2023-02-15T01:30:10;25.33;;;14.47;;
13461;SDS011;6803;45.264;5.468;2023-02-15T01:32:42;26.43;;;13.47;;
13461;SDS011;6803;45.264;5.468;2023-02-15T01:35:13;23.30;;;13.23;;
13461;SDS011;6803;45.264;5.468;2023-02-15T01:37:44;23.67;;;12.73;;
13461;SDS011;6803;45.264;5.468;2023-02-15T01:40:16;24.97;;;13.83;;
13461;SDS011;6803;45.264;5.468;2023-02-15T01:42:50;20.20;;;12.87;;
13461;SDS011;6803;45.264;5.468;2023-02-15T01:45:23;20.83;;;13.50;;
13461;SDS011;6803;45.264;5.468;2023-02-15T01:47:58;23.57;;;14.03;;
13461;SDS011;6803;45.264;5.468;2023-02-15T01:50:30;28.07;;;14.70;;
13461;SDS011;6803;45.264;5.468;2023-02-15T01:53:05;23.23;;;14.70;;
13461;SDS011;6803;45.264;5.468;2023-02-15T01:55:38;30.60;;;14.50;;
13461;SDS011;6803;45.264;5.468;2023-02-15T01:58:11;22.63;;;14.57;;
13461;SDS011;6803;45.264;5.468;2023-02-15T02:00:42;28.10;;;14.87;;
13461;SDS011;6803;45.264;5.468;2023-02-15T02:03:14;26.97;;;15.00;;
13461;SDS011;6803;45.264;5.468;2023-02-15T02:05:47;26.87;;;15.13;;
13461;SDS011;6803;45.264;5.468;2023-02-15T02:08:18;22.00;;;14.73;;
13461;SDS011;6803;45.264;5.468;2023-02-15T02:10:49;28.83;;;14.30;;
13461;SDS011;6803;45.264;5.468;2023-02-15T02:13:20;23.73;;;15.13;;
13461;SDS011;6803;45.264;5.468;2023-02-15T02:15:52;21.93;;;14.33;;
13461;SDS011;6803;45.264;5.468;2023-02-15T02:18:29;22.43;;;14.50;;
13461;SDS011;6803;45.264;5.468;2023-02-15T02:21:14;25.90;;;15.30;;
13461;SDS011;6803;45.264;5.468;2023-02-15T02:24:21;28.33;;;15.90;;
13461;SDS011;6803;45.264;5.468;2023-02-15T02:27:05;25.20;;;14.80;;
13461;SDS011;6803;45.264;5.468;2023-02-15T02:33:12;25.87;;;15.30;;
13461;SDS011;6803;45.264;5.468;2023-02-15T02:35:59;22.33;;;15.07;;
13461;SDS011;6803;45.264;5.468;2023-02-15T02:38:35;25.97;;;15.73;;
13461;SDS011;6803;45.264;5.468;2023-02-15T02:41:10;22.07;;;14.97;;
13461;SDS011;6803;45.264;5.468;2023-02-15T02:43:46;25.07;;;15.63;;
13461;SDS011;6803;45.264;5.468;2023-02-15T02:46:20;24.40;;;15.63;;
13461;SDS011;6803;45.264;5.468;2023-02-15T02:48:54;25.57;;;14.63;;
13461;SDS011;6803;45.264;5.468;2023-02-15T02:51:26;25.13;;;14.87;;
13461;SDS011;6803;45.264;5.468;2023-02-15T02:53:58;24.77;;;14.30;;
13461;SDS011;6803;45.264;5.468;2023-02-15T02:56:32;28.20;;;16.73;;
13461;SDS011;6803;45.264;5.468;2023-02-15T02:59:06;29.00;;;14.27;;
13461;SDS011;6803;45.264;5.468;2023-02-15T03:01:39;27.67;;;15.17;;
13461;SDS011;6803;45.264;5.468;2023-02-15T03:04:14;24.23;;;14.30;;
13461;SDS011;6803;45.264;5.468;2023-02-15T03:06:48;24.20;;;14.83;;
13461;SDS011;6803;45.264;5.468;2023-02-15T03:09:22;23.23;;;15.50;;
13461;SDS011;6803;45.264;5.468;2023-02-15T03:11:56;23.47;;;14.97;;
13461;SDS011;6803;45.264;5.468;2023-02-15T03:14:27;24.67;;;14.07;;
13461;SDS011;6803;45.264;5.468;2023-02-15T03:16:59;23.77;;;15.23;;
13461;SDS011;6803;45.264;5.468;2023-02-15T03:19:32;20.63;;;13.53;;
13461;SDS011;6803;45.264;5.468;2023-02-15T03:22:06;22.30;;;14.50;;
13461;SDS011;6803;45.264;5.468;2023-02-15T03:24:40;26.50;;;15.97;;
13461;SDS011;6803;45.264;5.468;2023-02-15T03:27:13;23.23;;;13.73;;
13461;SDS011;6803;45.264;5.468;2023-02-15T03:29:53;19.77;;;12.37;;
13461;SDS011;6803;45.264;5.468;2023-02-15T03:32:27;20.87;;;13.70;;
13461;SDS011;6803;45.264;5.468;2023-02-15T03:35:03;23.67;;;12.83;;
13461;SDS011;6803;45.264;5.468;2023-02-15T03:37:36;20.70;;;13.33;;
13461;SDS011;6803;45.264;5.468;2023-02-15T03:40:10;24.97;;;14.00;;
13461;SDS011;6803;45.264;5.468;2023-02-15T03:43:01;21.50;;;12.90;;
13461;SDS011;6803;45.264;5.468;2023-02-15T03:45:37;16.73;;;10.80;;
13461;SDS011;6803;45.264;5.468;2023-02-15T03:48:12;18.57;;;11.27;;
13461;SDS011;6803;45.264;5.468;2023-02-15T03:50:44;20.00;;;10.83;;
13461;SDS011;6803;45.264;5.468;2023-02-15T03:53:33;18.20;;;11.13;;
13461;SDS011;6803;45.264;5.468;2023-02-15T03:56:04;18.47;;;11.33;;
13461;SDS011;6803;45.264;5.468;2023-02-15T03:58:34;16.30;;;11.90;;
13461;SDS011;6803;45.264;5.468;2023-02-15T04:01:24;18.90;;;11.07;;
13461;SDS011;6803;45.264;5.468;2023-02-15T04:04:15;17.87;;;10.17;;
13461;SDS011;6803;45.264;5.468;2023-02-15T04:06:48;16.83;;;11.30;;
13461;SDS011;6803;45.264;5.468;2023-02-15T04:09:19;26.93;;;14.70;;
13461;SDS011;6803;45.264;5.468;2023-02-15T04:12:07;22.70;;;12.97;;
13461;SDS011;6803;45.264;5.468;2023-02-15T04:14:38;19.93;;;12.33;;
13461;SDS011;6803;45.264;5.468;2023-02-15T04:17:27;22.10;;;12.53;;
13461;SDS011;6803;45.264;5.468;2023-02-15T04:19:59;19.00;;;12.93;;
13461;SDS011;6803;45.264;5.468;2023-02-15T04:22:47;20.13;;;12.37;;
13461;SDS011;6803;45.264;5.468;2023-02-15T04:25:36;25.43;;;13.43;;
13461;SDS011;6803;45.264;5.468;2023-02-15T04:30:57;20.43;;;12.27;;
13461;SDS011;6803;45.264;5.468;2023-02-15T04:33:28;21.30;;;12.47;;
13461;SDS011;6803;45.264;5.468;2023-02-15T04:35:59;20.37;;;13.30;;
13461;SDS011;6803;45.264;5.468;2023-02-15T04:38:30;23.37;;;12.37;;
13461;SDS011;6803;45.264;5.468;2023-02-15T04:41:01;21.90;;;13.33;;
13461;SDS011;6803;45.264;5.468;2023-02-15T04:43:32;20.27;;;12.80;;
13461;SDS011;6803;45.264;5.468;2023-02-15T04:46:03;18.50;;;11.77;;
13461;SDS011;6803;45.264;5.468;2023-02-15T04:48:34;19.27;;;12.60;;
13461;SDS011;6803;45.264;5.468;2023-02-15T04:51:06;20.00;;;12.47;;
13461;SDS011;6803;45.264;5.468;2023-02-15T04:53:37;18.77;;;12.60;;
13461;SDS011;6803;45.264;5.468;2023-02-15T04:56:08;21.03;;;13.17;;
13461;SDS011;6803;45.264;5.468;2023-02-15T04:58:39;20.37;;;12.70;;
13461;SDS011;6803;45.264;5.468;2023-02-15T05:01:10;21.50;;;13.53;;
13461;SDS011;6803;45.264;5.468;2023-02-15T05:03:41;20.43;;;12.67;;
13461;SDS011;6803;45.264;5.468;2023-02-15T05:06:12;21.97;;;13.77;;
13461;SDS011;6803;45.264;5.468;2023-02-15T05:08:43;22.93;;;14.50;;
13461;SDS011;6803;45.264;5.468;2023-02-15T05:11:15;23.27;;;14.47;;
13461;SDS011;6803;45.264;5.468;2023-02-15T05:13:46;27.37;;;16.33;;
13461;SDS011;6803;45.264;5.468;2023-02-15T05:16:17;22.77;;;14.93;;
13461;SDS011;6803;45.264;5.468;2023-02-15T05:18:48;27.10;;;16.60;;
13461;SDS011;6803;45.264;5.468;2023-02-15T05:21:19;26.53;;;16.60;;
13461;SDS011;6803;45.264;5.468;2023-02-15T05:23:50;27.23;;;16.70;;
13461;SDS011;6803;45.264;5.468;2023-02-15T05:26:21;29.43;;;16.30;;
13461;SDS011;6803;45.264;5.468;2023-02-15T05:32:07;24.73;;;15.90;;
13461;SDS011;6803;45.264;5.468;2023-02-15T05:34:38;23.27;;;16.13;;
13461;SDS011;6803;45.264;5.468;2023-02-15T05:37:09;26.50;;;15.97;;
13461;SDS011;6803;45.264;5.468;2023-02-15T05:39:40;24.97;;;14.07;;
13461;SDS011;6803;45.264;5.468;2023-02-15T05:42:11;25.03;;;16.03;;
13461;SDS011;6803;45.264;5.468;2023-02-15T05:44:42;30.83;;;16.90;;
13461;SDS011;6803;45.264;5.468;2023-02-15T05:47:13;31.47;;;18.17;;
13461;SDS011;6803;45.264;5.468;2023-02-15T05:49:44;32.00;;;20.23;;
13461;SDS011;6803;45.264;5.468;2023-02-15T05:52:15;37.63;;;22.27;;
13461;SDS011;6803;45.264;5.468;2023-02-15T05:54:46;32.57;;;19.10;;
13461;SDS011;6803;45.264;5.468;2023-02-15T05:57:17;31.27;;;18.50;;
13461;SDS011;6803;45.264;5.468;2023-02-15T05:59:48;33.87;;;19.43;;
13461;SDS011;6803;45.264;5.468;2023-02-15T06:02:19;30.77;;;17.00;;
13461;SDS011;6803;45.264;5.468;2023-02-15T06:04:50;29.40;;;18.93;;
13461;SDS011;6803;45.264;5.468;2023-02-15T06:07:21;26.80;;;17.80;;
13461;SDS011;6803;45.264;5.468;2023-02-15T06:12:29;28.33;;;15.63;;
13461;SDS011;6803;45.264;5.468;2023-02-15T06:15:00;28.77;;;19.23;;
13461;SDS011;6803;45.264;5.468;2023-02-15T06:17:31;35.47;;;19.20;;
13461;SDS011;6803;45.264;5.468;2023-02-15T06:20:02;34.60;;;20.03;;
13461;SDS011;6803;45.264;5.468;2023-02-15T06:22:36;35.13;;;19.80;;
13461;SDS011;6803;45.264;5.468;2023-02-15T06:25:07;36.20;;;20.43;;
13461;SDS011;6803;45.264;5.468;2023-02-15T06:27:40;33.60;;;20.03;;
13461;SDS011;6803;45.264;5.468;2023-02-15T06:30:12;29.27;;;17.47;;
13461;SDS011;6803;45.264;5.468;2023-02-15T06:32:44;38.57;;;20.33;;
13461;SDS011;6803;45.264;5.468;2023-02-15T06:35:15;31.97;;;20.70;;
13461;SDS011;6803;45.264;5.468;2023-02-15T06:37:46;33.63;;;20.87;;
13461;SDS011;6803;45.264;5.468;2023-02-15T06:40:18;39.50;;;21.87;;
13461;SDS011;6803;45.264;5.468;2023-02-15T06:42:49;35.70;;;22.20;;
13461;SDS011;6803;45.264;5.468;2023-02-15T06:45:20;28.33;;;18.03;;
13461;SDS011;6803;45.264;5.468;2023-02-15T06:47:52;30.30;;;18.73;;
13461;SDS011;6803;45.264;5.468;2023-02-15T06:50:22;30.57;;;19.83;;
13461;SDS011;6803;45.264;5.468;2023-02-15T06:52:56;41.80;;;22.43;;
13461;SDS011;6803;45.264;5.468;2023-02-15T06:55:27;37.33;;;19.07;;
13461;SDS011;6803;45.264;5.468;2023-02-15T06:57:58;34.93;;;18.97;;
13461;SDS011;6803;45.264;5.468;2023-02-15T07:00:29;33.33;;;21.30;;
13461;SDS011;6803;45.264;5.468;2023-02-15T07:03:00;32.87;;;20.27;;
13461;SDS011;6803;45.264;5.468;2023-02-15T07:05:33;34.77;;;20.70;;
13461;SDS011;6803;45.264;5.468;2023-02-15T07:08:04;35.43;;;21.00;;
13461;SDS011;6803;45.264;5.468;2023-02-15T07:10:35;32.73;;;19.77;;
13461;SDS011;6803;45.264;5.468;2023-02-15T07:13:06;31.60;;;19.00;;
13461;SDS011;6803;45.264;5.468;2023-02-15T07:15:37;27.10;;;18.67;;
13461;SDS011;6803;45.264;5.468;2023-02-15T07:18:08;34.90;;;19.37;;
13461;SDS011;6803;45.264;5.468;2023-02-15T07:20:39;34.37;;;20.37;;
13461;SDS011;6803;45.264;5.468;2023-02-15T07:23:10;30.40;;;18.93;;
13461;SDS011;6803;45.264;5.468;2023-02-15T07:25:41;31.67;;;19.53;;
13461;SDS011;6803;45.264;5.468;2023-02-15T07:28:12;28.10;;;17.80;;
13461;SDS011;6803;45.264;5.468;2023-02-15T07:30:43;31.50;;;18.37;;
13461;SDS011;6803;45.264;5.468;2023-02-15T07:33:15;30.87;;;19.27;;
13461;SDS011;6803;45.264;5.468;2023-02-15T07:35:53;32.73;;;19.13;;
13461;SDS011;6803;45.264;5.468;2023-02-15T07:38:26;33.97;;;20.17;;
13461;SDS011;6803;45.264;5.468;2023-02-15T07:41:05;33.93;;;20.07;;
13461;SDS011;6803;45.264;5.468;2023-02-15T07:43:38;34.07;;;20.03;;
13461;SDS011;6803;45.264;5.468;2023-02-15T07:46:11;29.93;;;19.27;;
13461;SDS011;6803;45.264;5.468;2023-02-15T07:48:44;29.83;;;18.90;;
13461;SDS011;6803;45.264;5.468;2023-02-15T07:51:15;25.50;;;17.63;;
13461;SDS011;6803;45.264;5.468;2023-02-15T07:53:46;28.63;;;18.13;;
13461;SDS011;6803;45.264;5.468;2023-02-15T07:56:19;29.87;;;18.17;;
13461;SDS011;6803;45.264;5.468;2023-02-15T07:58:50;29.07;;;18.40;;
13461;SDS011;6803;45.264;5.468;2023-02-15T08:01:23;29.57;;;17.97;;
13461;SDS011;6803;45.264;5.468;2023-02-15T08:03:56;30.13;;;18.73;;
13461;SDS011;6803;45.264;5.468;2023-02-15T08:06:28;25.90;;;17.23;;
13461;SDS011;6803;45.264;5.468;2023-02-15T08:09:02;25.10;;;17.07;;
13461;SDS011;6803;45.264;5.468;2023-02-15T08:11:35;28.63;;;17.60;;
13461;SDS011;6803;45.264;5.468;2023-02-15T08:14:10;29.73;;;18.87;;
13461;SDS011;6803;45.264;5.468;2023-02-15T08:16:48;26.53;;;17.27;;
13461;SDS011;6803;45.264;5.468;2023-02-15T08:19:21;29.30;;;17.17;;
13461;SDS011;6803;45.264;5.468;2023-02-15T08:21:53;28.80;;;16.53;;
13461;SDS011;6803;45.264;5.468;2023-02-15T08:24:26;23.80;;;14.70;;
13461;SDS011;6803;45.264;5.468;2023-02-15T08:26:58;22.77;;;13.87;;
13461;SDS011;6803;45.264;5.468;2023-02-15T08:29:31;27.40;;;13.90;;
13461;SDS011;6803;45.264;5.468;2023-02-15T08:32:04;19.33;;;13.07;;
13461;SDS011;6803;45.264;5.468;2023-02-15T08:34:37;24.00;;;15.37;;
13461;SDS011;6803;45.264;5.468;2023-02-15T08:37:10;23.70;;;15.30;;
13461;SDS011;6803;45.264;5.468;2023-02-15T08:39:41;24.23;;;15.20;;
13461;SDS011;6803;45.264;5.468;2023-02-15T08:42:13;21.37;;;13.90;;
13461;SDS011;6803;45.264;5.468;2023-02-15T08:44:44;23.93;;;16.10;;
13461;SDS011;6803;45.264;5.468;2023-02-15T08:47:16;27.37;;;17.43;;
13461;SDS011;6803;45.264;5.468;2023-02-15T08:49:47;26.13;;;15.93;;
13461;SDS011;6803;45.264;5.468;2023-02-15T08:52:19;25.90;;;16.63;;
13461;SDS011;6803;45.264;5.468;2023-02-15T08:54:49;32.17;;;16.43;;
13461;SDS011;6803;45.264;5.468;2023-02-15T08:57:21;31.77;;;16.10;;
13461;SDS011;6803;45.264;5.468;2023-02-15T08:59:52;34.13;;;17.10;;
13461;SDS011;6803;45.264;5.468;2023-02-15T09:02:23;28.03;;;17.33;;
13461;SDS011;6803;45.264;5.468;2023-02-15T09:04:54;27.30;;;15.97;;
13461;SDS011;6803;45.264;5.468;2023-02-15T09:07:25;21.97;;;14.93;;
13461;SDS011;6803;45.264;5.468;2023-02-15T09:09:57;23.63;;;15.73;;
13461;SDS011;6803;45.264;5.468;2023-02-15T09:12:28;24.00;;;15.87;;
13461;SDS011;6803;45.264;5.468;2023-02-15T09:14:59;21.80;;;14.77;;
13461;SDS011;6803;45.264;5.468;2023-02-15T09:17:30;27.03;;;16.83;;
13461;SDS011;6803;45.264;5.468;2023-02-15T09:20:01;28.87;;;17.27;;
13461;SDS011;6803;45.264;5.468;2023-02-15T09:22:34;26.10;;;16.20;;
13461;SDS011;6803;45.264;5.468;2023-02-15T09:25:06;30.17;;;18.57;;
13461;SDS011;6803;45.264;5.468;2023-02-15T09:27:37;30.10;;;18.17;;
13461;SDS011;6803;45.264;5.468;2023-02-15T09:30:10;28.47;;;17.23;;
13461;SDS011;6803;45.264;5.468;2023-02-15T09:32:42;26.63;;;17.00;;
13461;SDS011;6803;45.264;5.468;2023-02-15T09:35:14;32.80;;;18.80;;
13461;SDS011;6803;45.264;5.468;2023-02-15T09:37:45;30.83;;;19.67;;
13461;SDS011;6803;45.264;5.468;2023-02-15T09:40:15;33.07;;;18.67;;
13461;SDS011;6803;45.264;5.468;2023-02-15T09:42:54;39.97;;;21.87;;
13461;SDS011;6803;45.264;5.468;2023-02-15T09:45:39;37.90;;;21.13;;
13461;SDS011;6803;45.264;5.468;2023-02-15T09:51:15;29.57;;;18.20;;
13461;SDS011;6803;45.264;5.468;2023-02-15T09:54:12;32.40;;;19.40;;
13461;SDS011;6803;45.264;5.468;2023-02-15T09:56:52;35.93;;;20.23;;
13461;SDS011;6803;45.264;5.468;2023-02-15T09:59:30;36.87;;;21.67;;
13461;SDS011;6803;45.264;5.468;2023-02-15T10:02:09;46.47;;;24.33;;
13461;SDS011;6803;45.264;5.468;2023-02-15T10:04:47;46.60;;;24.47;;
13461;SDS011;6803;45.264;5.468;2023-02-15T10:07:29;39.47;;;22.37;;
13461;SDS011;6803;45.264;5.468;2023-02-15T10:10:08;39.90;;;23.47;;
13461;SDS011;6803;45.264;5.468;2023-02-15T10:12:47;48.30;;;24.13;;
13461;SDS011;6803;45.264;5.468;2023-02-15T10:15:25;44.63;;;25.93;;
13461;SDS011;6803;45.264;5.468;2023-02-15T10:18:09;52.40;;;27.30;;
13461;SDS011;6803;45.264;5.468;2023-02-15T10:20:46;47.73;;;25.23;;
13461;SDS011;6803;45.264;5.468;2023-02-15T10:23:25;46.57;;;25.43;;
13461;SDS011;6803;45.264;5.468;2023-02-15T10:26:06;43.07;;;23.27;;
13461;SDS011;6803;45.264;5.468;2023-02-15T10:28:42;44.13;;;24.43;;
13461;SDS011;6803;45.264;5.468;2023-02-15T10:31:19;41.87;;;24.10;;
13461;SDS011;6803;45.264;5.468;2023-02-15T10:34:01;39.40;;;22.93;;
13461;SDS011;6803;45.264;5.468;2023-02-15T10:36:40;40.53;;;23.37;;
13461;SDS011;6803;45.264;5.468;2023-02-15T10:39:18;39.27;;;22.87;;
13461;SDS011;6803;45.264;5.468;2023-02-15T10:41:53;39.27;;;23.53;;
13461;SDS011;6803;45.264;5.468;2023-02-15T10:44:30;38.07;;;23.17;;
13461;SDS011;6803;45.264;5.468;2023-02-15T10:47:09;39.60;;;22.87;;
13461;SDS011;6803;45.264;5.468;2023-02-15T10:52:58;41.17;;;21.23;;
13461;SDS011;6803;45.264;5.468;2023-02-15T10:55:42;41.83;;;23.13;;
13461;SDS011;6803;45.264;5.468;2023-02-15T10:58:20;39.77;;;21.80;;
13461;SDS011;6803;45.264;5.468;2023-02-15T11:01:00;34.10;;;20.50;;
13461;SDS011;6803;45.264;5.468;2023-02-15T11:03:46;36.77;;;22.40;;
13461;SDS011;6803;45.264;5.468;2023-02-15T11:06:24;37.83;;;21.47;;
13461;SDS011;6803;45.264;5.468;2023-02-15T11:08:57;35.70;;;22.33;;
13461;SDS011;6803;45.264;5.468;2023-02-15T11:11:32;41.87;;;22.33;;
13461;SDS011;6803;45.264;5.468;2023-02-15T11:14:09;39.23;;;23.03;;
13461;SDS011;6803;45.264;5.468;2023-02-15T11:16:42;33.53;;;22.03;;
13461;SDS011;6803;45.264;5.468;2023-02-15T11:19:16;35.53;;;21.40;;
13461;SDS011;6803;45.264;5.468;2023-02-15T11:21:49;40.20;;;23.07;;
13461;SDS011;6803;45.264;5.468;2023-02-15T11:24:24;33.70;;;21.17;;
13461;SDS011;6803;45.264;5.468;2023-02-15T11:27:00;37.50;;;22.20;;
13461;SDS011;6803;45.264;5.468;2023-02-15T11:29:33;36.67;;;22.37;;
13461;SDS011;6803;45.264;5.468;2023-02-15T11:32:13;35.83;;;22.43;;
13461;SDS011;6803;45.264;5.468;2023-02-15T11:34:47;43.60;;;23.87;;
13461;SDS011;6803;45.264;5.468;2023-02-15T11:37:20;35.53;;;22.60;;
13461;SDS011;6803;45.264;5.468;2023-02-15T11:39:59;36.33;;;22.60;;
13461;SDS011;6803;45.264;5.468;2023-02-15T11:42:32;40.93;;;23.87;;
13461;SDS011;6803;45.264;5.468;2023-02-15T11:45:07;37.13;;;23.50;;
13461;SDS011;6803;45.264;5.468;2023-02-15T11:47:42;37.97;;;22.97;;
13461;SDS011;6803;45.264;5.468;2023-02-15T11:50:13;34.50;;;22.70;;
13461;SDS011;6803;45.264;5.468;2023-02-15T11:52:48;37.23;;;22.90;;
13461;SDS011;6803;45.264;5.468;2023-02-15T11:58:13;31.97;;;20.83;;
13461;SDS011;6803;45.264;5.468;2023-02-15T12:00:47;32.97;;;21.03;;
13461;SDS011;6803;45.264;5.468;2023-02-15T12:03:22;28.63;;;19.90;;
13461;SDS011;6803;45.264;5.468;2023-02-15T12:05:57;31.30;;;21.27;;
13461;SDS011;6803;45.264;5.468;2023-02-15T12:08:33;31.43;;;21.27;;
13461;SDS011;6803;45.264;5.468;2023-02-15T12:11:07;31.57;;;20.50;;
13461;SDS011;6803;45.264;5.468;2023-02-15T12:13:54;30.70;;;20.50;;
13461;SDS011;6803;45.264;5.468;2023-02-15T12:16:26;29.93;;;20.50;;
13461;SDS011;6803;45.264;5.468;2023-02-15T12:19:00;32.40;;;21.70;;
13461;SDS011;6803;45.264;5.468;2023-02-15T12:21:32;33.00;;;20.37;;
13461;SDS011;6803;45.264;5.468;2023-02-15T12:24:10;28.87;;;19.90;;
13461;SDS011;6803;45.264;5.468;2023-02-15T12:26:43;27.33;;;18.47;;
13461;SDS011;6803;45.264;5.468;2023-02-15T12:29:17;27.70;;;18.63;;
13461;SDS011;6803;45.264;5.468;2023-02-15T12:31:56;30.93;;;18.77;;
13461;SDS011;6803;45.264;5.468;2023-02-15T12:34:29;26.40;;;18.33;;
13461;SDS011;6803;45.264;5.468;2023-02-15T12:37:09;26.30;;;19.03;;
13461;SDS011;6803;45.264;5.468;2023-02-15T12:39:39;27.60;;;18.00;;
13461;SDS011;6803;45.264;5.468;2023-02-15T12:42:17;28.40;;;19.20;;
13461;SDS011;6803;45.264;5.468;2023-02-15T12:44:57;27.63;;;18.80;;
13461;SDS011;6803;45.264;5.468;2023-02-15T12:47:30;29.23;;;19.33;;
13461;SDS011;6803;45.264;5.468;2023-02-15T12:50:12;26.60;;;18.27;;
13461;SDS011;6803;45.264;5.468;2023-02-15T12:52:48;25.03;;;17.93;;
13461;SDS011;6803;45.264;5.468;2023-02-15T12:55:22;29.70;;;18.60;;
13461;SDS011;6803;45.264;5.468;2023-02-15T12:58:08;25.73;;;17.07;;
13461;SDS011;6803;45.264;5.468;2023-02-15T13:00:46;26.97;;;16.53;;
13461;SDS011;6803;45.264;5.468;2023-02-15T13:03:17;28.33;;;16.97;;
13461;SDS011;6803;45.264;5.468;2023-02-15T13:05:51;28.60;;;17.60;;
13461;SDS011;6803;45.264;5.468;2023-02-15T13:08:27;23.97;;;16.50;;
13461;SDS011;6803;45.264;5.468;2023-02-15T13:11:00;26.17;;;16.63;;
13461;SDS011;6803;45.264;5.468;2023-02-15T13:13:35;22.13;;;14.87;;
13461;SDS011;6803;45.264;5.468;2023-02-15T13:16:10;22.87;;;16.20;;
13461;SDS011;6803;45.264;5.468;2023-02-15T13:18:42;33.10;;;15.73;;
13461;SDS011;6803;45.264;5.468;2023-02-15T13:21:16;25.47;;;14.77;;
13461;SDS011;6803;45.264;5.468;2023-02-15T13:23:51;22.17;;;14.93;;
13461;SDS011;6803;45.264;5.468;2023-02-15T13:26:26;17.90;;;12.17;;
13461;SDS011;6803;45.264;5.468;2023-02-15T13:28:59;19.40;;;12.63;;
13461;SDS011;6803;45.264;5.468;2023-02-15T13:31:33;24.07;;;13.73;;
13461;SDS011;6803;45.264;5.468;2023-02-15T13:34:09;21.70;;;13.13;;
13461;SDS011;6803;45.264;5.468;2023-02-15T13:36:44;17.00;;;11.40;;
13461;SDS011;6803;45.264;5.468;2023-02-15T13:39:20;16.73;;;10.97;;
13461;SDS011;6803;45.264;5.468;2023-02-15T13:41:58;13.73;;;10.37;;
13461;SDS011;6803;45.264;5.468;2023-02-15T13:44:41;15.40;;;11.13;;
13461;SDS011;6803;45.264;5.468;2023-02-15T13:47:20;16.23;;;11.47;;
13461;SDS011;6803;45.264;5.468;2023-02-15T13:50:00;20.00;;;10.87;;
13461;SDS011;6803;45.264;5.468;2023-02-15T13:52:35;19.67;;;12.43;;
13461;SDS011;6803;45.264;5.468;2023-02-15T13:55:23;14.50;;;10.63;;
13461;SDS011;6803;45.264;5.468;2023-02-15T13:58:11;15.40;;;11.17;;
13461;SDS011;6803;45.264;5.468;2023-02-15T14:00:47;14.37;;;10.23;;
13461;SDS011;6803;45.264;5.468;2023-02-15T14:09:29;14.57;;;10.70;;
13461;SDS011;6803;45.264;5.468;2023-02-15T14:12:09;15.10;;;9.70;;
13461;SDS011;6803;45.264;5.468;2023-02-15T14:15:04;15.80;;;11.10;;
13461;SDS011;6803;45.264;5.468;2023-02-15T14:17:52;18.47;;;10.40;;
13461;SDS011;6803;45.264;5.468;2023-02-15T14:20:30;13.70;;;9.60;;
13461;SDS011;6803;45.264;5.468;2023-02-15T14:23:04;14.50;;;10.25;;
13461;SDS011;6803;45.264;5.468;2023-02-15T14:25:39;14.10;;;9.87;;
13461;SDS011;6803;45.264;5.468;2023-02-15T14:28:13;13.27;;;9.03;;
13461;SDS011;6803;45.264;5.468;2023-02-15T14:30:46;15.20;;;9.30;;
13461;SDS011;6803;45.264;5.468;2023-02-15T14:33:28;14.47;;;8.90;;
13461;SDS011;6803;45.264;5.468;2023-02-15T14:38:59;12.77;;;9.30;;
13461;SDS011;6803;45.264;5.468;2023-02-15T14:41:36;15.03;;;9.23;;
13461;SDS011;6803;45.264;5.468;2023-02-15T14:44:11;14.73;;;9.10;;
13461;SDS011;6803;45.264;5.468;2023-02-15T14:46:45;15.53;;;9.57;;
13461;SDS011;6803;45.264;5.468;2023-02-15T14:49:21;12.37;;;9.40;;
13461;SDS011;6803;45.264;5.468;2023-02-15T14:51:57;14.97;;;9.37;;
13461;SDS011;6803;45.264;5.468;2023-02-15T14:57:36;16.13;;;10.40;;
13461;SDS011;6803;45.264;5.468;2023-02-15T15:03:00;12.27;;;9.77;;
13461;SDS011;6803;45.264;5.468;2023-02-15T15:05:34;10.80;;;8.30;;
13461;SDS011;6803;45.264;5.468;2023-02-15T15:08:17;12.00;;;8.90;;
13461;SDS011;6803;45.264;5.468;2023-02-15T15:10:51;11.87;;;8.23;;
13461;SDS011;6803;45.264;5.468;2023-02-15T15:13:38;11.10;;;7.87;;
13461;SDS011;6803;45.264;5.468;2023-02-15T15:16:47;12.07;;;7.80;;
13461;SDS011;6803;45.264;5.468;2023-02-15T15:22:39;9.90;;;7.70;;
13461;SDS011;6803;45.264;5.468;2023-02-15T15:25:12;12.57;;;8.37;;
13461;SDS011;6803;45.264;5.468;2023-02-15T15:28:02;11.77;;;7.77;;
13461;SDS011;6803;45.264;5.468;2023-02-15T15:30:50;11.90;;;7.70;;
13461;SDS011;6803;45.264;5.468;2023-02-15T15:33:35;11.80;;;7.87;;
13461;SDS011;6803;45.264;5.468;2023-02-15T15:39:40;11.53;;;6.70;;
13461;SDS011;6803;45.264;5.468;2023-02-15T15:42:22;13.47;;;6.67;;
13461;SDS011;6803;45.264;5.468;2023-02-15T15:48:30;7.37;;;5.37;;
13461;SDS011;6803;45.264;5.468;2023-02-15T15:51:12;7.00;;;5.23;;
13461;SDS011;6803;45.264;5.468;2023-02-15T15:53:45;6.53;;;5.00;;
13461;SDS011;6803;45.264;5.468;2023-02-15T15:56:20;9.20;;;5.10;;
13461;SDS011;6803;45.264;5.468;2023-02-15T15:58:54;7.27;;;5.53;;
13461;SDS011;6803;45.264;5.468;2023-02-15T16:01:35;8.30;;;5.73;;
13461;SDS011;6803;45.264;5.468;2023-02-15T16:04:11;9.40;;;6.03;;
13461;SDS011;6803;45.264;5.468;2023-02-15T16:06:43;6.93;;;5.50;;